sensor_id;sensor_type;location;lat;lon;timestamp;P1;durP1;ratioP1;P2;durP2;ratioP2
40284;SDS011;25997;50.214;19.354;2023-10-09T00:02:40;15.82;;;8.93;;
40284;SDS011;25997;50.214;19.354;2023-10-09T00:05:45;14.25;;;9.68;;
40284;SDS011;25997;50.214;19.354;2023-10-09T00:08:48;14.80;;;9.40;;
40284;SDS011;25997;50.214;19.354;2023-10-09T00:11:55;14.88;;;9.15;;
40284;SDS011;25997;50.214;19.354;2023-10-09T00:14:58;13.88;;;8.95;;
40284;SDS011;25997;50.214;19.354;2023-10-09T00:18:11;12.93;;;9.63;;
40284;SDS011;25997;50.214;19.354;2023-10-09T00:21:15;16.25;;;9.07;;
40284;SDS011;25997;50.214;19.354;2023-10-09T00:24:20;16.27;;;9.88;;
40284;SDS011;25997;50.214;19.354;2023-10-09T00:27:24;14.00;;;9.23;;
40284;SDS011;25997;50.214;19.354;2023-10-09T00:30:32;17.15;;;10.15;;
40284;SDS011;25997;50.214;19.354;2023-10-09T00:33:36;13.48;;;9.00;;
40284;SDS011;25997;50.214;19.354;2023-10-09T00:36:40;14.52;;;9.45;;
40284;SDS011;25997;50.214;19.354;2023-10-09T00:39:51;13.13;;;8.90;;
40284;SDS011;25997;50.214;19.354;2023-10-09T00:42:59;14.85;;;9.23;;
40284;SDS011;25997;50.214;19.354;2023-10-09T00:46:04;14.00;;;9.52;;
40284;SDS011;25997;50.214;19.354;2023-10-09T00:49:12;13.48;;;9.10;;
40284;SDS011;25997;50.214;19.354;2023-10-09T00:52:18;12.55;;;8.55;;
40284;SDS011;25997;50.214;19.354;2023-10-09T00:55:31;13.85;;;8.30;;
40284;SDS011;25997;50.214;19.354;2023-10-09T00:58:45;14.75;;;8.60;;
40284;SDS011;25997;50.214;19.354;2023-10-09T01:01:49;13.07;;;8.07;;
40284;SDS011;25997;50.214;19.354;2023-10-09T01:04:56;14.85;;;9.35;;
40284;SDS011;25997;50.214;19.354;2023-10-09T01:08:01;14.35;;;9.82;;
40284;SDS011;25997;50.214;19.354;2023-10-09T01:11:16;17.02;;;9.50;;
40284;SDS011;25997;50.214;19.354;2023-10-09T01:14:21;15.65;;;9.80;;
40284;SDS011;25997;50.214;19.354;2023-10-09T01:17:24;15.13;;;9.25;;
40284;SDS011;25997;50.214;19.354;2023-10-09T01:20:36;12.50;;;8.73;;
40284;SDS011;25997;50.214;19.354;2023-10-09T01:23:44;17.85;;;9.57;;
40284;SDS011;25997;50.214;19.354;2023-10-09T01:27:03;17.15;;;10.43;;
40284;SDS011;25997;50.214;19.354;2023-10-09T01:30:13;16.50;;;9.90;;
40284;SDS011;25997;50.214;19.354;2023-10-09T01:33:15;14.73;;;9.40;;
40284;SDS011;25997;50.214;19.354;2023-10-09T01:36:24;14.95;;;9.77;;
40284;SDS011;25997;50.214;19.354;2023-10-09T01:39:33;17.50;;;9.85;;
40284;SDS011;25997;50.214;19.354;2023-10-09T01:42:40;15.00;;;9.48;;
40284;SDS011;25997;50.214;19.354;2023-10-09T01:45:46;14.90;;;9.38;;
40284;SDS011;25997;50.214;19.354;2023-10-09T01:48:48;16.42;;;10.02;;
40284;SDS011;25997;50.214;19.354;2023-10-09T01:51:51;18.40;;;10.35;;
40284;SDS011;25997;50.214;19.354;2023-10-09T01:54:55;17.60;;;11.18;;
40284;SDS011;25997;50.214;19.354;2023-10-09T01:58:04;18.38;;;11.55;;
40284;SDS011;25997;50.214;19.354;2023-10-09T02:01:15;17.17;;;12.13;;
40284;SDS011;25997;50.214;19.354;2023-10-09T02:04:18;17.95;;;12.00;;
40284;SDS011;25997;50.214;19.354;2023-10-09T02:07:21;18.17;;;12.15;;
40284;SDS011;25997;50.214;19.354;2023-10-09T02:10:29;17.60;;;11.48;;
40284;SDS011;25997;50.214;19.354;2023-10-09T02:13:33;17.50;;;11.38;;
40284;SDS011;25997;50.214;19.354;2023-10-09T02:16:36;16.67;;;11.88;;
40284;SDS011;25997;50.214;19.354;2023-10-09T02:19:42;15.00;;;10.55;;
40284;SDS011;25997;50.214;19.354;2023-10-09T02:22:48;24.60;;;19.27;;
40284;SDS011;25997;50.214;19.354;2023-10-09T02:25:57;24.42;;;20.33;;
40284;SDS011;25997;50.214;19.354;2023-10-09T02:29:02;17.33;;;13.70;;
40284;SDS011;25997;50.214;19.354;2023-10-09T02:32:15;16.17;;;11.43;;
40284;SDS011;25997;50.214;19.354;2023-10-09T02:35:26;15.30;;;11.55;;
40284;SDS011;25997;50.214;19.354;2023-10-09T02:38:38;23.75;;;19.02;;
40284;SDS011;25997;50.214;19.354;2023-10-09T02:41:44;23.50;;;19.50;;
40284;SDS011;25997;50.214;19.354;2023-10-09T02:44:50;20.98;;;16.33;;
40284;SDS011;25997;50.214;19.354;2023-10-09T02:47:53;17.38;;;11.30;;
40284;SDS011;25997;50.214;19.354;2023-10-09T02:50:56;15.82;;;12.75;;
40284;SDS011;25997;50.214;19.354;2023-10-09T02:53:59;20.85;;;16.77;;
40284;SDS011;25997;50.214;19.354;2023-10-09T02:57:09;23.40;;;21.02;;
40284;SDS011;25997;50.214;19.354;2023-10-09T03:00:22;18.60;;;16.30;;
40284;SDS011;25997;50.214;19.354;2023-10-09T03:03:30;15.77;;;11.15;;
40284;SDS011;25997;50.214;19.354;2023-10-09T03:06:36;15.20;;;10.25;;
40284;SDS011;25997;50.214;19.354;2023-10-09T03:09:43;16.80;;;11.63;;
40284;SDS011;25997;50.214;19.354;2023-10-09T03:12:47;15.10;;;10.18;;
40284;SDS011;25997;50.214;19.354;2023-10-09T03:15:52;14.30;;;10.68;;
40284;SDS011;25997;50.214;19.354;2023-10-09T03:18:54;14.93;;;10.75;;
40284;SDS011;25997;50.214;19.354;2023-10-09T03:21:57;16.77;;;12.13;;
40284;SDS011;25997;50.214;19.354;2023-10-09T03:24:59;18.10;;;12.40;;
40284;SDS011;25997;50.214;19.354;2023-10-09T03:28:04;16.70;;;11.63;;
40284;SDS011;25997;50.214;19.354;2023-10-09T03:31:07;16.38;;;11.05;;
40284;SDS011;25997;50.214;19.354;2023-10-09T03:34:10;17.80;;;11.13;;
40284;SDS011;25997;50.214;19.354;2023-10-09T03:37:13;15.25;;;10.55;;
40284;SDS011;25997;50.214;19.354;2023-10-09T03:40:23;14.80;;;9.80;;
40284;SDS011;25997;50.214;19.354;2023-10-09T03:43:27;15.85;;;10.27;;
40284;SDS011;25997;50.214;19.354;2023-10-09T03:46:34;13.23;;;9.90;;
40284;SDS011;25997;50.214;19.354;2023-10-09T03:49:37;15.80;;;10.00;;
40284;SDS011;25997;50.214;19.354;2023-10-09T03:52:40;14.13;;;9.93;;
40284;SDS011;25997;50.214;19.354;2023-10-09T03:55:42;14.82;;;9.70;;
40284;SDS011;25997;50.214;19.354;2023-10-09T03:58:47;14.35;;;9.32;;
40284;SDS011;25997;50.214;19.354;2023-10-09T04:01:50;12.57;;;8.30;;
40284;SDS011;25997;50.214;19.354;2023-10-09T04:04:53;13.32;;;8.50;;
40284;SDS011;25997;50.214;19.354;2023-10-09T04:07:56;10.32;;;7.97;;
40284;SDS011;25997;50.214;19.354;2023-10-09T04:10:59;11.48;;;8.52;;
40284;SDS011;25997;50.214;19.354;2023-10-09T04:14:05;14.93;;;8.77;;
40284;SDS011;25997;50.214;19.354;2023-10-09T04:17:12;12.68;;;8.25;;
40284;SDS011;25997;50.214;19.354;2023-10-09T04:20:29;11.93;;;8.98;;
40284;SDS011;25997;50.214;19.354;2023-10-09T04:24:13;11.27;;;8.23;;
40284;SDS011;25997;50.214;19.354;2023-10-09T04:27:23;10.75;;;7.53;;
40284;SDS011;25997;50.214;19.354;2023-10-09T04:30:37;10.82;;;8.35;;
40284;SDS011;25997;50.214;19.354;2023-10-09T04:33:43;14.77;;;10.55;;
40284;SDS011;25997;50.214;19.354;2023-10-09T04:36:55;15.80;;;12.25;;
40284;SDS011;25997;50.214;19.354;2023-10-09T04:40:17;11.23;;;9.05;;
40284;SDS011;25997;50.214;19.354;2023-10-09T04:43:42;13.60;;;8.68;;
40284;SDS011;25997;50.214;19.354;2023-10-09T04:46:46;12.20;;;9.48;;
40284;SDS011;25997;50.214;19.354;2023-10-09T04:50:19;14.25;;;9.25;;
40284;SDS011;25997;50.214;19.354;2023-10-09T04:53:53;13.30;;;8.93;;
40284;SDS011;25997;50.214;19.354;2023-10-09T04:57:00;13.52;;;9.05;;
40284;SDS011;25997;50.214;19.354;2023-10-09T05:00:03;12.15;;;7.45;;
40284;SDS011;25997;50.214;19.354;2023-10-09T05:03:24;12.02;;;9.00;;
40284;SDS011;25997;50.214;19.354;2023-10-09T05:06:28;12.40;;;8.32;;
40284;SDS011;25997;50.214;19.354;2023-10-09T05:09:55;12.00;;;9.25;;
40284;SDS011;25997;50.214;19.354;2023-10-09T05:13:06;12.57;;;9.05;;
40284;SDS011;25997;50.214;19.354;2023-10-09T05:16:14;11.43;;;8.50;;
40284;SDS011;25997;50.214;19.354;2023-10-09T05:19:20;11.65;;;8.48;;
40284;SDS011;25997;50.214;19.354;2023-10-09T05:22:42;11.55;;;8.52;;
40284;SDS011;25997;50.214;19.354;2023-10-09T05:25:57;13.73;;;8.85;;
40284;SDS011;25997;50.214;19.354;2023-10-09T05:29:20;10.25;;;8.35;;
40284;SDS011;25997;50.214;19.354;2023-10-09T05:32:35;30.75;;;21.20;;
40284;SDS011;25997;50.214;19.354;2023-10-09T05:35:50;26.77;;;20.83;;
40284;SDS011;25997;50.214;19.354;2023-10-09T05:39:06;27.98;;;23.08;;
40284;SDS011;25997;50.214;19.354;2023-10-09T05:42:23;19.83;;;17.73;;
40284;SDS011;25997;50.214;19.354;2023-10-09T05:45:30;16.90;;;13.48;;
40284;SDS011;25997;50.214;19.354;2023-10-09T05:48:46;15.15;;;9.65;;
40284;SDS011;25997;50.214;19.354;2023-10-09T05:52:11;13.93;;;10.18;;
40284;SDS011;25997;50.214;19.354;2023-10-09T05:55:27;14.45;;;10.68;;
40284;SDS011;25997;50.214;19.354;2023-10-09T05:58:53;14.73;;;10.73;;
40284;SDS011;25997;50.214;19.354;2023-10-09T06:02:09;12.63;;;8.40;;
40284;SDS011;25997;50.214;19.354;2023-10-09T06:05:29;9.85;;;7.75;;
40284;SDS011;25997;50.214;19.354;2023-10-09T06:08:53;12.80;;;8.15;;
40284;SDS011;25997;50.214;19.354;2023-10-09T06:12:12;9.27;;;6.85;;
40284;SDS011;25997;50.214;19.354;2023-10-09T06:15:36;12.38;;;6.63;;
40284;SDS011;25997;50.214;19.354;2023-10-09T06:19:01;9.93;;;7.00;;
40284;SDS011;25997;50.214;19.354;2023-10-09T06:22:12;10.10;;;6.95;;
40284;SDS011;25997;50.214;19.354;2023-10-09T06:28:39;8.30;;;5.65;;
40284;SDS011;25997;50.214;19.354;2023-10-09T06:31:50;8.35;;;6.25;;
40284;SDS011;25997;50.214;19.354;2023-10-09T06:35:21;7.35;;;5.03;;
40284;SDS011;25997;50.214;19.354;2023-10-09T06:38:27;7.20;;;5.43;;
40284;SDS011;25997;50.214;19.354;2023-10-09T06:41:42;7.22;;;5.32;;
40284;SDS011;25997;50.214;19.354;2023-10-09T06:44:45;8.93;;;7.05;;
40284;SDS011;25997;50.214;19.354;2023-10-09T06:47:53;9.90;;;7.15;;
40284;SDS011;25997;50.214;19.354;2023-10-09T06:51:08;10.48;;;7.78;;
40284;SDS011;25997;50.214;19.354;2023-10-09T06:54:16;13.55;;;9.35;;
40284;SDS011;25997;50.214;19.354;2023-10-09T06:57:20;9.07;;;8.05;;
40284;SDS011;25997;50.214;19.354;2023-10-09T07:00:38;12.40;;;10.27;;
40284;SDS011;25997;50.214;19.354;2023-10-09T07:03:57;8.65;;;6.50;;
40284;SDS011;25997;50.214;19.354;2023-10-09T07:07:11;7.13;;;5.43;;
40284;SDS011;25997;50.214;19.354;2023-10-09T07:10:17;6.97;;;3.80;;
40284;SDS011;25997;50.214;19.354;2023-10-09T07:13:31;10.73;;;6.35;;
40284;SDS011;25997;50.214;19.354;2023-10-09T07:16:38;8.02;;;6.00;;
40284;SDS011;25997;50.214;19.354;2023-10-09T07:19:39;6.75;;;4.97;;
40284;SDS011;25997;50.214;19.354;2023-10-09T07:22:58;7.57;;;6.20;;
40284;SDS011;25997;50.214;19.354;2023-10-09T07:26:14;7.93;;;6.65;;
40284;SDS011;25997;50.214;19.354;2023-10-09T07:29:25;8.25;;;6.13;;
40284;SDS011;25997;50.214;19.354;2023-10-09T07:32:28;9.35;;;5.75;;
40284;SDS011;25997;50.214;19.354;2023-10-09T07:35:32;11.13;;;7.07;;
40284;SDS011;25997;50.214;19.354;2023-10-09T07:38:47;10.98;;;7.30;;
40284;SDS011;25997;50.214;19.354;2023-10-09T07:41:55;13.25;;;8.70;;
40284;SDS011;25997;50.214;19.354;2023-10-09T07:45:04;14.20;;;9.50;;
40284;SDS011;25997;50.214;19.354;2023-10-09T07:48:33;12.65;;;8.48;;
40284;SDS011;25997;50.214;19.354;2023-10-09T07:51:41;11.02;;;6.78;;
40284;SDS011;25997;50.214;19.354;2023-10-09T07:54:44;7.30;;;5.60;;
40284;SDS011;25997;50.214;19.354;2023-10-09T07:57:53;7.93;;;7.03;;
40284;SDS011;25997;50.214;19.354;2023-10-09T08:00:57;11.93;;;9.95;;
40284;SDS011;25997;50.214;19.354;2023-10-09T08:04:16;9.50;;;8.18;;
40284;SDS011;25997;50.214;19.354;2023-10-09T08:07:21;10.90;;;9.93;;
40284;SDS011;25997;50.214;19.354;2023-10-09T08:10:26;8.23;;;5.93;;
40284;SDS011;25997;50.214;19.354;2023-10-09T08:13:46;11.82;;;10.63;;
40284;SDS011;25997;50.214;19.354;2023-10-09T08:16:58;9.88;;;7.30;;
40284;SDS011;25997;50.214;19.354;2023-10-09T08:20:12;7.70;;;6.97;;
40284;SDS011;25997;50.214;19.354;2023-10-09T08:23:17;10.02;;;9.13;;
40284;SDS011;25997;50.214;19.354;2023-10-09T08:26:29;17.02;;;15.27;;
40284;SDS011;25997;50.214;19.354;2023-10-09T08:29:47;7.90;;;7.10;;
40284;SDS011;25997;50.214;19.354;2023-10-09T08:32:51;15.13;;;10.18;;
40284;SDS011;25997;50.214;19.354;2023-10-09T08:36:03;10.50;;;7.03;;
40284;SDS011;25997;50.214;19.354;2023-10-09T08:39:05;15.30;;;8.10;;
40284;SDS011;25997;50.214;19.354;2023-10-09T08:42:17;9.55;;;6.55;;
40284;SDS011;25997;50.214;19.354;2023-10-09T08:45:21;8.68;;;5.80;;
40284;SDS011;25997;50.214;19.354;2023-10-09T08:48:29;5.97;;;4.97;;
40284;SDS011;25997;50.214;19.354;2023-10-09T08:51:32;7.00;;;4.22;;
40284;SDS011;25997;50.214;19.354;2023-10-09T08:54:36;5.43;;;4.50;;
40284;SDS011;25997;50.214;19.354;2023-10-09T08:57:38;4.22;;;2.95;;
40284;SDS011;25997;50.214;19.354;2023-10-09T09:00:41;5.38;;;3.10;;
40284;SDS011;25997;50.214;19.354;2023-10-09T09:03:48;6.35;;;3.65;;
40284;SDS011;25997;50.214;19.354;2023-10-09T09:06:51;6.95;;;3.85;;
40284;SDS011;25997;50.214;19.354;2023-10-09T09:09:54;5.43;;;3.85;;
40284;SDS011;25997;50.214;19.354;2023-10-09T09:13:02;5.95;;;3.60;;
40284;SDS011;25997;50.214;19.354;2023-10-09T09:16:12;4.30;;;2.30;;
40284;SDS011;25997;50.214;19.354;2023-10-09T09:22:19;5.32;;;3.58;;
40284;SDS011;25997;50.214;19.354;2023-10-09T09:25:22;6.88;;;4.07;;
40284;SDS011;25997;50.214;19.354;2023-10-09T09:28:27;12.27;;;7.03;;
40284;SDS011;25997;50.214;19.354;2023-10-09T09:31:51;7.70;;;4.20;;
40284;SDS011;25997;50.214;19.354;2023-10-09T09:34:56;9.93;;;6.03;;
40284;SDS011;25997;50.214;19.354;2023-10-09T09:38:01;5.72;;;3.38;;
40284;SDS011;25997;50.214;19.354;2023-10-09T09:41:06;6.03;;;4.38;;
40284;SDS011;25997;50.214;19.354;2023-10-09T09:44:09;6.32;;;3.88;;
40284;SDS011;25997;50.214;19.354;2023-10-09T09:47:17;3.58;;;2.20;;
40284;SDS011;25997;50.214;19.354;2023-10-09T09:50:28;4.15;;;2.58;;
40284;SDS011;25997;50.214;19.354;2023-10-09T09:53:32;4.95;;;2.90;;
40284;SDS011;25997;50.214;19.354;2023-10-09T09:56:35;5.22;;;3.03;;
40284;SDS011;25997;50.214;19.354;2023-10-09T09:59:40;8.05;;;4.88;;
40284;SDS011;25997;50.214;19.354;2023-10-09T10:02:50;9.70;;;5.32;;
40284;SDS011;25997;50.214;19.354;2023-10-09T10:05:58;3.67;;;2.38;;
40284;SDS011;25997;50.214;19.354;2023-10-09T10:09:06;4.13;;;2.00;;
40284;SDS011;25997;50.214;19.354;2023-10-09T10:12:09;4.03;;;2.58;;
40284;SDS011;25997;50.214;19.354;2023-10-09T10:15:11;3.72;;;2.17;;
40284;SDS011;25997;50.214;19.354;2023-10-09T10:18:16;4.57;;;1.77;;
40284;SDS011;25997;50.214;19.354;2023-10-09T10:21:22;5.90;;;2.58;;
40284;SDS011;25997;50.214;19.354;2023-10-09T10:24:43;4.63;;;3.20;;
40284;SDS011;25997;50.214;19.354;2023-10-09T10:28:06;4.57;;;3.20;;
40284;SDS011;25997;50.214;19.354;2023-10-09T10:34:57;2.83;;;1.77;;
40284;SDS011;25997;50.214;19.354;2023-10-09T10:41:35;3.05;;;2.33;;
40284;SDS011;25997;50.214;19.354;2023-10-09T10:44:51;4.57;;;3.10;;
40284;SDS011;25997;50.214;19.354;2023-10-09T10:47:54;5.18;;;2.90;;
40284;SDS011;25997;50.214;19.354;2023-10-09T10:50:59;5.80;;;3.72;;
40284;SDS011;25997;50.214;19.354;2023-10-09T10:54:02;8.20;;;3.97;;
40284;SDS011;25997;50.214;19.354;2023-10-09T10:57:20;4.70;;;3.35;;
40284;SDS011;25997;50.214;19.354;2023-10-09T11:00:55;3.88;;;2.72;;
40284;SDS011;25997;50.214;19.354;2023-10-09T11:04:16;4.63;;;3.13;;
40284;SDS011;25997;50.214;19.354;2023-10-09T11:07:25;4.70;;;2.85;;
40284;SDS011;25997;50.214;19.354;2023-10-09T11:10:28;4.70;;;3.00;;
40284;SDS011;25997;50.214;19.354;2023-10-09T11:13:34;4.82;;;3.17;;
40284;SDS011;25997;50.214;19.354;2023-10-09T11:16:37;5.55;;;2.70;;
40284;SDS011;25997;50.214;19.354;2023-10-09T11:19:49;4.35;;;2.80;;
40284;SDS011;25997;50.214;19.354;2023-10-09T11:22:53;5.80;;;2.63;;
40284;SDS011;25997;50.214;19.354;2023-10-09T11:26:15;4.15;;;2.92;;
40284;SDS011;25997;50.214;19.354;2023-10-09T11:29:27;5.45;;;2.60;;
40284;SDS011;25997;50.214;19.354;2023-10-09T11:33:03;5.03;;;2.80;;
40284;SDS011;25997;50.214;19.354;2023-10-09T11:36:07;7.82;;;3.70;;
40284;SDS011;25997;50.214;19.354;2023-10-09T11:39:12;6.18;;;2.88;;
40284;SDS011;25997;50.214;19.354;2023-10-09T11:42:35;3.90;;;2.53;;
40284;SDS011;25997;50.214;19.354;2023-10-09T11:45:38;3.40;;;2.38;;
40284;SDS011;25997;50.214;19.354;2023-10-09T11:49:01;3.28;;;2.25;;
40284;SDS011;25997;50.214;19.354;2023-10-09T11:52:16;3.70;;;2.33;;
40284;SDS011;25997;50.214;19.354;2023-10-09T11:55:38;4.05;;;2.47;;
40284;SDS011;25997;50.214;19.354;2023-10-09T11:58:39;8.75;;;5.18;;
40284;SDS011;25997;50.214;19.354;2023-10-09T12:01:47;6.75;;;4.32;;
40284;SDS011;25997;50.214;19.354;2023-10-09T12:04:53;5.55;;;3.35;;
40284;SDS011;25997;50.214;19.354;2023-10-09T12:07:57;5.63;;;2.90;;
40284;SDS011;25997;50.214;19.354;2023-10-09T12:11:02;5.22;;;3.45;;
40284;SDS011;25997;50.214;19.354;2023-10-09T12:14:08;4.85;;;3.17;;
40284;SDS011;25997;50.214;19.354;2023-10-09T12:17:12;5.38;;;3.30;;
40284;SDS011;25997;50.214;19.354;2023-10-09T12:20:15;5.25;;;3.13;;
40284;SDS011;25997;50.214;19.354;2023-10-09T12:23:30;8.98;;;6.18;;
40284;SDS011;25997;50.214;19.354;2023-10-09T12:26:36;9.05;;;6.10;;
40284;SDS011;25997;50.214;19.354;2023-10-09T12:29:40;5.20;;;4.35;;
40284;SDS011;25997;50.214;19.354;2023-10-09T12:32:46;5.28;;;2.63;;
40284;SDS011;25997;50.214;19.354;2023-10-09T12:35:49;3.38;;;2.20;;
40284;SDS011;25997;50.214;19.354;2023-10-09T12:38:51;3.20;;;2.00;;
40284;SDS011;25997;50.214;19.354;2023-10-09T12:41:54;2.88;;;2.10;;
40284;SDS011;25997;50.214;19.354;2023-10-09T12:44:59;3.83;;;2.60;;
40284;SDS011;25997;50.214;19.354;2023-10-09T12:48:09;4.30;;;3.08;;
40284;SDS011;25997;50.214;19.354;2023-10-09T12:51:13;5.03;;;2.90;;
40284;SDS011;25997;50.214;19.354;2023-10-09T12:54:17;4.32;;;2.97;;
40284;SDS011;25997;50.214;19.354;2023-10-09T12:57:21;4.72;;;3.33;;
40284;SDS011;25997;50.214;19.354;2023-10-09T13:00:24;3.13;;;2.00;;
40284;SDS011;25997;50.214;19.354;2023-10-09T13:03:28;4.95;;;2.55;;
40284;SDS011;25997;50.214;19.354;2023-10-09T13:06:33;5.57;;;3.72;;
40284;SDS011;25997;50.214;19.354;2023-10-09T13:09:44;13.65;;;8.98;;
40284;SDS011;25997;50.214;19.354;2023-10-09T13:13:06;8.00;;;6.10;;
40284;SDS011;25997;50.214;19.354;2023-10-09T13:16:12;6.88;;;4.32;;
40284;SDS011;25997;50.214;19.354;2023-10-09T13:19:24;11.02;;;7.95;;
40284;SDS011;25997;50.214;19.354;2023-10-09T13:22:27;16.58;;;12.60;;
40284;SDS011;25997;50.214;19.354;2023-10-09T13:25:31;15.25;;;12.90;;
40284;SDS011;25997;50.214;19.354;2023-10-09T13:28:40;8.73;;;7.40;;
40284;SDS011;25997;50.214;19.354;2023-10-09T13:31:42;17.80;;;16.08;;
40284;SDS011;25997;50.214;19.354;2023-10-09T13:34:49;12.02;;;10.82;;
40284;SDS011;25997;50.214;19.354;2023-10-09T13:37:54;9.60;;;8.35;;
40284;SDS011;25997;50.214;19.354;2023-10-09T13:40:57;12.77;;;10.98;;
40284;SDS011;25997;50.214;19.354;2023-10-09T13:44:01;8.25;;;6.80;;
40284;SDS011;25997;50.214;19.354;2023-10-09T13:47:04;9.23;;;6.93;;
40284;SDS011;25997;50.214;19.354;2023-10-09T13:50:08;5.82;;;4.55;;
40284;SDS011;25997;50.214;19.354;2023-10-09T13:53:11;5.60;;;4.32;;
40284;SDS011;25997;50.214;19.354;2023-10-09T13:56:16;5.93;;;4.63;;
40284;SDS011;25997;50.214;19.354;2023-10-09T13:59:20;6.25;;;4.57;;
40284;SDS011;25997;50.214;19.354;2023-10-09T14:02:24;5.53;;;4.38;;
40284;SDS011;25997;50.214;19.354;2023-10-09T14:05:30;6.25;;;4.50;;
40284;SDS011;25997;50.214;19.354;2023-10-09T14:08:34;6.55;;;5.88;;
40284;SDS011;25997;50.214;19.354;2023-10-09T14:11:42;10.18;;;7.88;;
40284;SDS011;25997;50.214;19.354;2023-10-09T14:14:45;10.85;;;9.65;;
40284;SDS011;25997;50.214;19.354;2023-10-09T14:17:49;11.73;;;8.82;;
40284;SDS011;25997;50.214;19.354;2023-10-09T14:21:00;6.93;;;6.22;;
40284;SDS011;25997;50.214;19.354;2023-10-09T14:24:05;9.80;;;5.65;;
40284;SDS011;25997;50.214;19.354;2023-10-09T14:27:15;10.23;;;8.68;;
40284;SDS011;25997;50.214;19.354;2023-10-09T14:30:19;9.63;;;8.23;;
40284;SDS011;25997;50.214;19.354;2023-10-09T14:33:31;8.45;;;6.75;;
40284;SDS011;25997;50.214;19.354;2023-10-09T14:36:38;13.50;;;10.13;;
40284;SDS011;25997;50.214;19.354;2023-10-09T14:39:44;8.25;;;6.80;;
40284;SDS011;25997;50.214;19.354;2023-10-09T14:42:48;9.10;;;7.65;;
40284;SDS011;25997;50.214;19.354;2023-10-09T14:45:53;4.78;;;4.22;;
40284;SDS011;25997;50.214;19.354;2023-10-09T14:48:56;7.32;;;4.18;;
40284;SDS011;25997;50.214;19.354;2023-10-09T14:52:01;5.30;;;3.78;;
40284;SDS011;25997;50.214;19.354;2023-10-09T14:55:07;7.20;;;3.75;;
40284;SDS011;25997;50.214;19.354;2023-10-09T14:58:11;4.97;;;3.72;;
40284;SDS011;25997;50.214;19.354;2023-10-09T15:01:14;5.47;;;3.70;;
40284;SDS011;25997;50.214;19.354;2023-10-09T15:04:20;5.93;;;4.20;;
40284;SDS011;25997;50.214;19.354;2023-10-09T15:07:27;4.63;;;3.42;;
40284;SDS011;25997;50.214;19.354;2023-10-09T15:10:30;5.78;;;4.00;;
40284;SDS011;25997;50.214;19.354;2023-10-09T15:13:32;6.75;;;3.88;;
40284;SDS011;25997;50.214;19.354;2023-10-09T15:16:35;9.05;;;8.13;;
40284;SDS011;25997;50.214;19.354;2023-10-09T15:19:39;6.82;;;6.13;;
40284;SDS011;25997;50.214;19.354;2023-10-09T15:22:44;11.20;;;9.65;;
40284;SDS011;25997;50.214;19.354;2023-10-09T15:25:47;39.72;;;34.03;;
40284;SDS011;25997;50.214;19.354;2023-10-09T15:28:52;41.33;;;36.83;;
40284;SDS011;25997;50.214;19.354;2023-10-09T15:31:54;58.42;;;52.40;;
40284;SDS011;25997;50.214;19.354;2023-10-09T15:34:57;29.73;;;26.80;;
40284;SDS011;25997;50.214;19.354;2023-10-09T15:38:02;18.65;;;16.70;;
40284;SDS011;25997;50.214;19.354;2023-10-09T15:41:05;17.13;;;15.20;;
40284;SDS011;25997;50.214;19.354;2023-10-09T15:44:08;15.15;;;13.40;;
40284;SDS011;25997;50.214;19.354;2023-10-09T15:47:10;14.55;;;12.88;;
40284;SDS011;25997;50.214;19.354;2023-10-09T15:50:13;12.85;;;11.40;;
40284;SDS011;25997;50.214;19.354;2023-10-09T15:53:17;21.45;;;16.67;;
40284;SDS011;25997;50.214;19.354;2023-10-09T15:56:19;20.50;;;17.60;;
40284;SDS011;25997;50.214;19.354;2023-10-09T15:59:22;18.98;;;15.02;;
40284;SDS011;25997;50.214;19.354;2023-10-09T16:02:26;14.50;;;13.02;;
40284;SDS011;25997;50.214;19.354;2023-10-09T16:05:28;20.90;;;18.58;;
40284;SDS011;25997;50.214;19.354;2023-10-09T16:11:37;14.20;;;12.10;;
40284;SDS011;25997;50.214;19.354;2023-10-09T16:14:40;17.95;;;14.88;;
40284;SDS011;25997;50.214;19.354;2023-10-09T16:17:44;13.07;;;11.15;;
40284;SDS011;25997;50.214;19.354;2023-10-09T16:20:48;11.68;;;10.10;;
40284;SDS011;25997;50.214;19.354;2023-10-09T16:23:52;12.95;;;11.13;;
40284;SDS011;25997;50.214;19.354;2023-10-09T16:26:55;16.77;;;14.52;;
40284;SDS011;25997;50.214;19.354;2023-10-09T16:29:59;15.90;;;13.32;;
40284;SDS011;25997;50.214;19.354;2023-10-09T16:33:06;14.35;;;12.57;;
40284;SDS011;25997;50.214;19.354;2023-10-09T16:36:09;12.65;;;11.35;;
40284;SDS011;25997;50.214;19.354;2023-10-09T16:39:13;12.48;;;11.20;;
40284;SDS011;25997;50.214;19.354;2023-10-09T16:42:23;11.88;;;10.35;;
40284;SDS011;25997;50.214;19.354;2023-10-09T16:45:25;16.13;;;12.93;;
40284;SDS011;25997;50.214;19.354;2023-10-09T16:48:28;21.90;;;17.23;;
40284;SDS011;25997;50.214;19.354;2023-10-09T16:51:30;29.42;;;21.30;;
40284;SDS011;25997;50.214;19.354;2023-10-09T16:54:34;29.10;;;21.23;;
40284;SDS011;25997;50.214;19.354;2023-10-09T16:57:37;31.70;;;23.48;;
40284;SDS011;25997;50.214;19.354;2023-10-09T17:00:41;30.10;;;21.20;;
40284;SDS011;25997;50.214;19.354;2023-10-09T17:03:47;22.70;;;18.33;;
40284;SDS011;25997;50.214;19.354;2023-10-09T17:06:55;21.02;;;16.80;;
40284;SDS011;25997;50.214;19.354;2023-10-09T17:10:00;20.65;;;15.10;;
40284;SDS011;25997;50.214;19.354;2023-10-09T17:13:09;24.95;;;17.88;;
40284;SDS011;25997;50.214;19.354;2023-10-09T17:16:13;37.60;;;20.85;;
40284;SDS011;25997;50.214;19.354;2023-10-09T17:19:18;35.30;;;20.38;;
40284;SDS011;25997;50.214;19.354;2023-10-09T17:22:21;31.50;;;17.95;;
40284;SDS011;25997;50.214;19.354;2023-10-09T17:25:26;26.00;;;16.63;;
40284;SDS011;25997;50.214;19.354;2023-10-09T17:28:32;48.35;;;25.83;;
40284;SDS011;25997;50.214;19.354;2023-10-09T17:31:34;34.58;;;19.58;;
40284;SDS011;25997;50.214;19.354;2023-10-09T17:34:39;60.67;;;33.35;;
40284;SDS011;25997;50.214;19.354;2023-10-09T17:37:44;48.22;;;27.10;;
40284;SDS011;25997;50.214;19.354;2023-10-09T17:40:48;30.17;;;20.83;;
40284;SDS011;25997;50.214;19.354;2023-10-09T17:43:51;21.10;;;16.25;;
40284;SDS011;25997;50.214;19.354;2023-10-09T17:46:55;20.80;;;12.90;;
40284;SDS011;25997;50.214;19.354;2023-10-09T17:49:57;14.43;;;10.90;;
40284;SDS011;25997;50.214;19.354;2023-10-09T17:53:00;14.30;;;9.35;;
40284;SDS011;25997;50.214;19.354;2023-10-09T17:56:06;11.93;;;9.25;;
40284;SDS011;25997;50.214;19.354;2023-10-09T17:59:09;14.20;;;10.18;;
40284;SDS011;25997;50.214;19.354;2023-10-09T18:02:12;13.55;;;9.52;;
40284;SDS011;25997;50.214;19.354;2023-10-09T18:05:16;15.43;;;9.35;;
40284;SDS011;25997;50.214;19.354;2023-10-09T18:08:20;13.25;;;9.27;;
40284;SDS011;25997;50.214;19.354;2023-10-09T18:11:27;17.52;;;10.10;;
40284;SDS011;25997;50.214;19.354;2023-10-09T18:14:30;15.82;;;9.75;;
40284;SDS011;25997;50.214;19.354;2023-10-09T18:17:32;15.25;;;10.38;;
40284;SDS011;25997;50.214;19.354;2023-10-09T18:20:39;16.55;;;10.27;;
40284;SDS011;25997;50.214;19.354;2023-10-09T18:23:43;16.88;;;11.93;;
40284;SDS011;25997;50.214;19.354;2023-10-09T18:26:47;18.33;;;11.80;;
40284;SDS011;25997;50.214;19.354;2023-10-09T18:29:50;16.10;;;10.63;;
40284;SDS011;25997;50.214;19.354;2023-10-09T18:32:53;14.80;;;10.48;;
40284;SDS011;25997;50.214;19.354;2023-10-09T18:35:57;17.85;;;10.68;;
40284;SDS011;25997;50.214;19.354;2023-10-09T18:39:02;14.57;;;11.63;;